Time;durP1;ratioP1;P1;durP2;ratioP2;P2;SDS_P1;SDS_P2;PMS_P1;PMS_P2;Temp;Humidity;BMP_temperature;BMP_pressure;BME280_temperature;BME280_humidity;BME280_pressure;Samples;Min_cycle;Max_cycle;Signal;HPM_P1;HPM_P2
2021/04/25 00:01:35;;;;;;;5.17;4.20;;;8.40;99.90;;;;;;5022184;28;20360;-72
2021/04/25 00:04:01;;;;;;;5.83;4.83;;;8.40;99.90;;;;;;5017203;28;20177;-72
2021/04/25 00:06:27;;;;;;;7.87;4.50;;;8.40;99.90;;;;;;5018930;28;20456;-72
2021/04/25 00:08:52;;;;;;;4.80;3.73;;;8.30;99.90;;;;;;5022127;28;20203;-72
2021/04/25 00:11:18;;;;;;;12.43;4.10;;;8.30;99.90;;;;;;5020220;28;20184;-72
2021/04/25 00:13:44;;;;;;;8.00;4.90;;;8.30;99.90;;;;;;5016950;28;20178;-72
2021/04/25 00:16:11;;;;;;;7.37;3.70;;;8.20;99.90;;;;;;5022483;28;20204;-72
2021/04/25 00:18:38;;;;;;;10.87;4.87;;;8.10;99.90;;;;;;5025149;28;20446;-72
2021/04/25 00:21:03;;;;;;;6.83;4.10;;;8.10;99.90;;;;;;5021809;28;20895;-72
2021/04/25 00:23:29;;;;;;;9.60;4.27;;;8.00;99.90;;;;;;5025336;28;20422;-73
2021/04/25 00:25:55;;;;;;;7.00;4.47;;;8.00;99.90;;;;;;5017804;28;20438;-71
2021/04/25 00:28:20;;;;;;;9.23;5.40;;;8.00;99.90;;;;;;5017341;28;20259;-71
2021/04/25 00:30:46;;;;;;;8.87;4.83;;;7.90;99.90;;;;;;5022840;28;20274;-72
2021/04/25 00:33:11;;;;;;;4.77;3.63;;;7.90;99.90;;;;;;5023964;28;20187;-71
2021/04/25 00:35:37;;;;;;;7.37;4.50;;;7.80;99.90;;;;;;5021489;28;20207;-71
2021/04/25 00:38:03;;;;;;;8.23;4.73;;;7.80;99.90;;;;;;5021081;28;20672;-72
2021/04/25 00:40:28;;;;;;;4.50;4.03;;;7.80;99.90;;;;;;5021498;28;20210;-71
2021/04/25 00:42:54;;;;;;;8.17;4.30;;;7.80;99.90;;;;;;5022635;28;20746;-71
2021/04/25 00:45:20;;;;;;;5.23;4.73;;;7.80;99.90;;;;;;5023151;28;20232;-71
2021/04/25 00:47:48;;;;;;;6.27;4.17;;;7.70;99.90;;;;;;5024301;28;20294;-71
2021/04/25 00:50:20;;;;;;;7.50;4.30;;;7.70;99.90;;;;;;5023727;28;20450;-71
2021/04/25 00:52:47;;;;;;;5.40;3.90;;;7.60;99.90;;;;;;5021684;28;20439;-71
2021/04/25 00:55:15;;;;;;;6.67;4.10;;;7.60;99.90;;;;;;5023708;28;20477;-71
2021/04/25 00:57:40;;;;;;;7.53;4.10;;;7.50;99.90;;;;;;5019502;28;20477;-72
2021/04/25 01:00:08;;;;;;;7.13;4.80;;;7.50;99.90;;;;;;5024359;28;20887;-72
2021/04/25 01:02:34;;;;;;;7.60;4.37;;;7.40;99.90;;;;;;5017700;28;20187;-72
2021/04/25 01:05:00;;;;;;;6.97;4.50;;;7.30;99.90;;;;;;5021189;28;20789;-72
2021/04/25 01:07:26;;;;;;;8.33;4.07;;;7.20;99.90;;;;;;5022451;28;20435;-72
2021/04/25 01:09:52;;;;;;;10.13;4.97;;;7.20;99.90;;;;;;5023982;28;20451;-71
2021/04/25 01:12:18;;;;;;;5.07;3.73;;;7.20;99.90;;;;;;5016135;28;20533;-71
2021/04/25 01:14:43;;;;;;;6.57;4.67;;;7.10;99.90;;;;;;5021009;28;20474;-72
2021/04/25 01:17:09;;;;;;;6.50;4.00;;;7.00;99.90;;;;;;5021702;28;20718;-72
2021/04/25 01:19:35;;;;;;;12.30;5.27;;;6.80;99.90;;;;;;5019775;28;20711;-73
2021/04/25 01:22:00;;;;;;;5.40;4.10;;;6.80;99.90;;;;;;5020962;28;20180;-71
2021/04/25 01:24:26;;;;;;;9.77;5.07;;;6.70;99.90;;;;;;5022801;28;20284;-71
2021/04/25 01:26:52;;;;;;;6.33;4.33;;;6.60;99.90;;;;;;5016553;28;20189;-71
2021/04/25 01:29:17;;;;;;;7.10;4.53;;;6.60;99.90;;;;;;5010587;28;20204;-73
2021/04/25 01:31:43;;;;;;;16.37;5.13;;;6.50;99.90;;;;;;5036578;28;20260;-71
2021/04/25 01:34:08;;;;;;;8.53;4.83;;;6.40;99.90;;;;;;5017713;28;20248;-71
2021/04/25 01:36:34;;;;;;;6.00;4.77;;;6.30;99.90;;;;;;5017795;28;20232;-71
2021/04/25 01:39:00;;;;;;;6.27;3.80;;;6.20;99.90;;;;;;5018600;28;20376;-70
2021/04/25 01:41:25;;;;;;;7.93;5.33;;;6.10;99.90;;;;;;5019897;28;20189;-72
2021/04/25 01:43:50;;;;;;;17.10;4.97;;;6.10;99.90;;;;;;5016960;28;20190;-72
2021/04/25 01:46:16;;;;;;;9.60;4.90;;;6.00;99.90;;;;;;5018841;28;20561;-71
2021/04/25 01:48:43;;;;;;;6.00;4.07;;;6.00;99.90;;;;;;5015837;28;20257;-71
2021/04/25 01:51:09;;;;;;;5.73;4.60;;;6.00;99.90;;;;;;5021339;28;20431;-71
2021/04/25 01:53:35;;;;;;;12.80;4.90;;;5.90;99.90;;;;;;5016378;28;20538;-71
2021/04/25 01:56:02;;;;;;;6.60;4.33;;;5.90;99.90;;;;;;5023072;28;21063;-71
2021/04/25 01:58:28;;;;;;;4.30;3.90;;;5.90;99.90;;;;;;5016177;28;20180;-71
2021/04/25 02:00:54;;;;;;;6.37;4.73;;;5.90;99.90;;;;;;5018914;28;20922;-71
2021/04/25 02:03:19;;;;;;;8.30;4.20;;;5.90;99.90;;;;;;5010301;28;20236;-72
2021/04/25 02:05:45;;;;;;;5.40;4.20;;;5.90;99.90;;;;;;5019162;28;20228;-72
2021/04/25 02:08:12;;;;;;;11.10;4.83;;;5.80;99.90;;;;;;5016607;28;20212;-71
2021/04/25 02:10:39;;;;;;;4.13;3.73;;;5.70;99.90;;;;;;5015393;28;20192;-72
2021/04/25 02:13:05;;;;;;;7.60;4.17;;;5.70;99.90;;;;;;5021797;28;20397;-71
2021/04/25 02:15:31;;;;;;;8.50;3.63;;;5.70;99.90;;;;;;5012445;28;20985;-71
2021/04/25 02:17:56;;;;;;;9.03;5.10;;;5.60;99.90;;;;;;5020468;28;20529;-71
2021/04/25 02:20:23;;;;;;;10.13;5.00;;;5.50;99.90;;;;;;5014420;28;20224;-71
2021/04/25 02:22:49;;;;;;;7.80;4.97;;;5.40;99.90;;;;;;5018935;28;20603;-72
2021/04/25 02:25:17;;;;;;;11.53;5.47;;;5.40;99.90;;;;;;5022581;28;20451;-72
2021/04/25 02:27:43;;;;;;;8.73;5.23;;;5.40;99.90;;;;;;5016304;28;20864;-72
2021/04/25 02:30:12;;;;;;;10.20;5.37;;;5.40;99.90;;;;;;5017016;28;22147;-72
2021/04/25 02:32:38;;;;;;;9.17;4.80;;;5.40;99.90;;;;;;5020663;28;20451;-73
2021/04/25 02:35:06;;;;;;;10.13;4.83;;;5.30;99.90;;;;;;5017018;28;21006;-72
2021/04/25 02:37:31;;;;;;;6.63;4.90;;;5.30;99.90;;;;;;5019492;28;20828;-73
2021/04/25 02:39:57;;;;;;;6.83;4.70;;;5.20;99.90;;;;;;5018988;28;20449;-71
2021/04/25 02:42:22;;;;;;;8.47;4.57;;;5.20;99.90;;;;;;5017631;28;20189;-72
2021/04/25 02:44:48;;;;;;;9.97;4.80;;;5.20;99.90;;;;;;5016543;28;20188;-72
2021/04/25 02:47:14;;;;;;;7.40;5.00;;;5.10;99.90;;;;;;5018456;28;20190;-71
2021/04/25 02:49:39;;;;;;;8.90;4.80;;;5.10;99.90;;;;;;5019010;28;20710;-72
2021/04/25 02:52:05;;;;;;;9.43;4.67;;;5.10;99.90;;;;;;5019055;28;20193;-72
2021/04/25 02:54:32;;;;;;;8.90;5.30;;;5.10;99.90;;;;;;5017769;28;20187;-72
2021/04/25 02:56:58;;;;;;;8.33;5.50;;;5.00;99.90;;;;;;5015720;28;20495;-72
2021/04/25 02:59:23;;;;;;;7.10;4.40;;;5.00;99.90;;;;;;5016371;28;20430;-72
2021/04/25 03:01:49;;;;;;;11.60;5.43;;;5.00;99.90;;;;;;5021256;28;20183;-72
2021/04/25 03:04:14;;;;;;;6.20;4.87;;;5.00;99.90;;;;;;5021487;28;20195;-71
2021/04/25 03:06:40;;;;;;;8.00;5.03;;;4.90;99.90;;;;;;5017793;28;20627;-72
2021/04/25 03:09:05;;;;;;;10.33;4.73;;;4.90;99.90;;;;;;5017102;28;20245;-71
2021/04/25 03:11:31;;;;;;;9.67;5.47;;;4.90;99.90;;;;;;5017210;28;20564;-72
2021/04/25 03:13:56;;;;;;;7.70;4.40;;;4.90;99.90;;;;;;5017829;28;20185;-72
2021/04/25 03:16:22;;;;;;;6.43;4.20;;;4.90;99.90;;;;;;5020807;28;20672;-73
2021/04/25 03:18:47;;;;;;;11.73;4.70;;;4.80;99.90;;;;;;5011502;28;20231;-71
2021/04/25 03:21:13;;;;;;;9.47;5.60;;;4.80;99.90;;;;;;5021915;28;20308;-72
2021/04/25 03:23:38;;;;;;;6.00;3.93;;;4.80;99.90;;;;;;5016641;28;20178;-72
2021/04/25 03:26:04;;;;;;;5.40;4.00;;;4.80;99.90;;;;;;5018576;28;20663;-71
2021/04/25 03:28:29;;;;;;;8.57;4.53;;;4.70;99.90;;;;;;5017885;28;20181;-71
2021/04/25 03:30:55;;;;;;;11.17;5.37;;;4.70;99.90;;;;;;5012446;28;20198;-72
2021/04/25 03:33:21;;;;;;;7.10;5.10;;;4.60;99.90;;;;;;5020744;28;20184;-71
2021/04/25 03:35:47;;;;;;;6.83;4.10;;;4.60;99.90;;;;;;5016653;28;20262;-73
2021/04/25 03:38:13;;;;;;;7.43;4.20;;;4.60;99.90;;;;;;5018157;28;21116;-71
2021/04/25 03:40:38;;;;;;;5.80;4.73;;;4.60;99.90;;;;;;5016761;28;20190;-72
2021/04/25 03:43:04;;;;;;;7.27;4.63;;;4.60;99.90;;;;;;5013737;28;20176;-72
2021/04/25 03:45:30;;;;;;;8.53;5.30;;;4.60;99.90;;;;;;5014776;28;20590;-73
2021/04/25 03:47:55;;;;;;;6.80;5.37;;;4.60;99.90;;;;;;5018070;28;20695;-72
2021/04/25 03:50:24;;;;;;;10.67;5.43;;;4.50;99.90;;;;;;5022565;28;20205;-72
2021/04/25 03:52:49;;;;;;;9.77;5.40;;;4.50;99.90;;;;;;5016400;28;20535;-72
2021/04/25 03:55:17;;;;;;;7.77;4.63;;;4.50;99.90;;;;;;5022684;28;20459;-71
2021/04/25 03:57:43;;;;;;;15.13;4.20;;;4.40;99.90;;;;;;5020303;28;20183;-72
2021/04/25 04:00:11;;;;;;;7.20;4.90;;;4.40;99.90;;;;;;5022285;28;20995;-72
2021/04/25 04:02:36;;;;;;;5.10;4.37;;;4.40;99.90;;;;;;5017926;28;20189;-71
2021/04/25 04:05:03;;;;;;;4.67;4.10;;;4.40;99.90;;;;;;5025715;28;20517;-72
2021/04/25 04:07:29;;;;;;;7.70;5.47;;;4.30;99.90;;;;;;5021791;28;20188;-71
2021/04/25 04:09:55;;;;;;;5.30;4.13;;;4.30;99.90;;;;;;5019204;28;20810;-71
2021/04/25 04:12:20;;;;;;;7.70;5.20;;;4.30;99.90;;;;;;5023252;28;20276;-71
2021/04/25 04:14:47;;;;;;;8.43;5.27;;;4.30;99.90;;;;;;5018594;28;20243;-71
2021/04/25 04:17:13;;;;;;;7.13;4.60;;;4.30;99.90;;;;;;5020871;28;20675;-71
2021/04/25 04:19:39;;;;;;;5.60;4.40;;;4.20;99.90;;;;;;5015823;28;20478;-72
2021/04/25 04:22:04;;;;;;;10.63;4.30;;;4.20;99.90;;;;;;5023669;28;20437;-72
2021/04/25 04:24:30;;;;;;;8.70;5.07;;;4.20;99.90;;;;;;5022266;28;20191;-72
2021/04/25 04:26:55;;;;;;;7.50;5.00;;;4.20;99.90;;;;;;5017477;28;20187;-72
2021/04/25 04:29:21;;;;;;;7.90;5.20;;;4.20;99.90;;;;;;5015925;28;20223;-72
2021/04/25 04:31:46;;;;;;;11.33;5.47;;;4.20;99.90;;;;;;5020187;28;20656;-73
2021/04/25 04:34:12;;;;;;;8.23;5.90;;;4.20;99.90;;;;;;5024616;28;20183;-72
2021/04/25 04:36:38;;;;;;;7.73;4.73;;;4.20;99.90;;;;;;5020490;28;20220;-72
2021/04/25 04:39:04;;;;;;;12.23;5.50;;;4.20;99.90;;;;;;5019585;28;20201;-72
2021/04/25 04:41:29;;;;;;;7.80;4.77;;;4.30;99.90;;;;;;5021414;28;20178;-72
2021/04/25 04:43:55;;;;;;;9.20;4.40;;;4.30;99.90;;;;;;5016474;28;20445;-72
2021/04/25 04:46:21;;;;;;;6.27;3.93;;;4.30;99.90;;;;;;5023047;28;20264;-72
2021/04/25 04:48:46;;;;;;;8.57;4.80;;;4.40;99.90;;;;;;5020634;28;20292;-72
2021/04/25 04:51:12;;;;;;;7.50;5.30;;;4.40;99.90;;;;;;5017241;28;20431;-72
2021/04/25 04:53:37;;;;;;;8.30;5.40;;;4.40;99.90;;;;;;5023190;28;20189;-69
2021/04/25 04:56:04;;;;;;;8.40;5.00;;;4.50;99.90;;;;;;5020438;28;20300;-71
2021/04/25 04:58:29;;;;;;;7.00;4.63;;;4.50;99.90;;;;;;5018779;28;20705;-71
2021/04/25 05:00:55;;;;;;;8.80;4.70;;;4.70;99.90;;;;;;5014535;28;20436;-72
2021/04/25 05:03:20;;;;;;;7.00;4.90;;;4.80;99.90;;;;;;5019170;28;20212;-73
2021/04/25 05:05:46;;;;;;;8.50;5.53;;;4.80;99.90;;;;;;5019815;28;20196;-72
2021/04/25 05:08:11;;;;;;;7.10;4.70;;;5.00;99.90;;;;;;5021941;28;20178;-71
2021/04/25 05:10:37;;;;;;;7.57;5.70;;;5.10;99.90;;;;;;5016374;28;20213;-73
2021/04/25 05:13:08;;;;;;;10.23;5.10;;;5.30;99.90;;;;;;5020436;28;20195;-72
2021/04/25 05:15:34;;;;;;;9.60;5.80;;;5.40;99.90;;;;;;5012147;28;20289;-72
2021/04/25 05:17:59;;;;;;;7.93;6.00;;;5.80;99.90;;;;;;5020806;28;20445;-72
2021/04/25 05:20:25;;;;;;;9.83;5.30;;;6.80;99.90;;;;;;5020148;28;20231;-72
2021/04/25 05:22:50;;;;;;;8.27;5.37;;;7.90;99.90;;;;;;5019129;28;20236;-72
2021/04/25 05:25:16;;;;;;;7.27;5.17;;;9.30;99.90;;;;;;5021616;28;20215;-72
2021/04/25 05:27:41;;;;;;;6.73;4.60;;;11.10;99.90;;;;;;5018014;28;20664;-72
2021/04/25 05:30:07;;;;;;;10.20;5.07;;;13.10;99.90;;;;;;5024046;28;20213;-72
2021/04/25 05:32:33;;;;;;;9.03;4.70;;;14.50;99.90;;;;;;5019969;28;20196;-73
2021/04/25 05:34:58;;;;;;;10.50;4.83;;;15.60;99.90;;;;;;5017410;28;20460;-74
2021/04/25 05:37:24;;;;;;;7.23;4.90;;;16.40;99.90;;;;;;5020008;28;20253;-73
2021/04/25 05:39:49;;;;;;;6.60;4.90;;;17.30;99.90;;;;;;5020068;28;20209;-72
2021/04/25 05:42:15;;;;;;;7.07;4.97;;;18.00;99.90;;;;;;5020585;28;20546;-73
2021/04/25 05:44:40;;;;;;;11.70;6.20;;;17.90;99.90;;;;;;5017019;28;20670;-72
2021/04/25 05:47:06;;;;;;;10.53;5.47;;;17.50;99.90;;;;;;5016489;28;20182;-72
2021/04/25 05:49:32;;;;;;;8.60;5.73;;;17.60;99.90;;;;;;5018885;28;20198;-73
2021/04/25 05:51:57;;;;;;;6.70;5.60;;;18.90;99.90;;;;;;5017775;28;20683;-73
2021/04/25 05:54:23;;;;;;;6.80;5.10;;;19.60;98.20;;;;;;5022076;28;20709;-73
2021/04/25 05:56:48;;;;;;;9.57;5.93;;;20.00;97.50;;;;;;5014634;28;20215;-72
2021/04/25 05:59:14;;;;;;;5.93;5.20;;;19.90;96.50;;;;;;5015199;28;20210;-72
2021/04/25 06:01:39;;;;;;;7.50;5.60;;;20.30;96.20;;;;;;5015926;28;20193;-70
2021/04/25 06:04:06;;;;;;;8.20;5.90;;;20.50;94.80;;;;;;5023550;28;20202;-71
2021/04/25 06:06:32;;;;;;;7.97;5.20;;;20.30;94.60;;;;;;5017798;28;20270;-71
2021/04/25 06:08:58;;;;;;;7.60;5.63;;;20.00;94.50;;;;;;5015721;28;20464;-71
2021/04/25 06:11:24;;;;;;;7.83;6.13;;;19.70;94.30;;;;;;5021925;28;20870;-71
2021/04/25 06:13:50;;;;;;;7.73;6.40;;;19.50;94.80;;;;;;5014060;28;21200;-71
2021/04/25 06:16:15;;;;;;;7.07;5.93;;;19.30;94.90;;;;;;5016219;28;20468;-73
2021/04/25 06:18:41;;;;;;;10.73;5.80;;;19.30;95.10;;;;;;5011301;28;20198;-70
2021/04/25 06:21:06;;;;;;;9.67;7.20;;;18.90;94.60;;;;;;5018946;28;20557;-70
2021/04/25 06:23:32;;;;;;;8.13;6.20;;;18.20;95.40;;;;;;5016749;28;20198;-71
2021/04/25 06:25:57;;;;;;;9.57;6.30;;;17.50;96.50;;;;;;5017979;28;20607;-70
2021/04/25 06:28:27;;;;;;;11.93;6.50;;;17.10;97.00;;;;;;5019550;28;20178;-70
2021/04/25 06:30:53;;;;;;;12.10;7.30;;;16.50;97.60;;;;;;5012959;28;20554;-72
2021/04/25 06:33:18;;;;;;;7.63;6.07;;;16.40;97.60;;;;;;5021863;28;20815;-72
2021/04/25 06:35:44;;;;;;;11.47;7.10;;;16.30;98.30;;;;;;5017869;28;20468;-70
2021/04/25 06:38:09;;;;;;;11.43;8.10;;;16.00;99.10;;;;;;5015905;28;20215;-71
2021/04/25 06:40:36;;;;;;;10.80;7.50;;;15.90;99.30;;;;;;5016764;28;20235;-72
2021/04/25 06:43:04;;;;;;;10.40;7.10;;;15.80;99.30;;;;;;5013636;28;20174;-74
2021/04/25 06:45:30;;;;;;;10.50;7.00;;;15.90;99.90;;;;;;5017579;28;20445;-73
2021/04/25 06:47:56;;;;;;;12.53;7.80;;;16.00;99.80;;;;;;5018383;28;20862;-73
2021/04/25 06:50:21;;;;;;;10.67;7.67;;;16.10;99.50;;;;;;5018576;28;20492;-74
2021/04/25 06:52:48;;;;;;;10.13;7.97;;;16.10;99.90;;;;;;5020268;28;20293;-73
2021/04/25 06:55:17;;;;;;;9.53;7.70;;;16.10;99.60;;;;;;5018659;28;20709;-74
2021/04/25 06:57:44;;;;;;;12.50;7.80;;;15.90;99.40;;;;;;5017743;28;20881;-73
2021/04/25 07:00:11;;;;;;;16.47;7.83;;;15.90;99.90;;;;;;5012381;28;20469;-72
2021/04/25 07:02:36;;;;;;;14.10;8.67;;;15.90;99.90;;;;;;5019691;28;20879;-73
2021/04/25 07:05:04;;;;;;;17.90;9.60;;;16.00;99.80;;;;;;5010477;28;20475;-74
2021/04/25 07:07:30;;;;;;;8.93;7.50;;;15.80;99.90;;;;;;5020974;28;20185;-73
2021/04/25 07:09:56;;;;;;;16.60;8.93;;;15.90;99.90;;;;;;5017813;28;20470;-74
2021/04/25 07:12:21;;;;;;;14.63;9.20;;;16.20;99.10;;;;;;5020048;28;20184;-71
2021/04/25 07:14:47;;;;;;;9.37;8.27;;;16.40;99.90;;;;;;5014142;28;20466;-72
2021/04/25 07:17:13;;;;;;;15.93;10.00;;;15.90;98.90;;;;;;5032338;28;20181;-72
2021/04/25 07:19:38;;;;;;;15.43;8.17;;;16.20;99.30;;;;;;5018217;28;20297;-73
2021/04/25 07:22:04;;;;;;;14.40;10.23;;;16.40;99.30;;;;;;5021464;28;20177;-73
2021/04/25 07:24:29;;;;;;;11.47;8.67;;;16.60;98.90;;;;;;5020590;28;20178;-74
2021/04/25 07:26:55;;;;;;;12.77;8.97;;;16.80;99.20;;;;;;5020353;28;20875;-73
2021/04/25 07:29:21;;;;;;;12.20;9.07;;;16.80;98.90;;;;;;5017281;28;20289;-73
2021/04/25 07:31:46;;;;;;;15.50;9.47;;;16.90;97.60;;;;;;5022178;28;20178;-72
2021/04/25 07:34:12;;;;;;;16.53;9.90;;;16.90;98.20;;;;;;5023230;28;20964;-71
2021/04/25 07:36:37;;;;;;;15.00;10.40;;;16.90;98.00;;;;;;5022525;28;20237;-72
2021/04/25 07:39:04;;;;;;;13.13;10.70;;;17.10;97.80;;;;;;5018728;28;20208;-73
2021/04/25 07:41:31;;;;;;;17.50;10.43;;;17.10;97.30;;;;;;5025783;28;20178;-74
2021/04/25 07:43:57;;;;;;;15.90;10.20;;;17.40;99.30;;;;;;5023006;28;20437;-74
2021/04/25 07:46:23;;;;;;;14.70;10.07;;;17.30;97.30;;;;;;5022704;28;20503;-74
2021/04/25 07:48:48;;;;;;;18.83;10.83;;;17.40;98.80;;;;;;5016195;28;20190;-75
2021/04/25 07:51:14;;;;;;;18.47;10.47;;;17.50;98.30;;;;;;5020197;28;20691;-75
2021/04/25 07:53:39;;;;;;;12.77;10.57;;;17.80;97.50;;;;;;5023999;28;20562;-74
2021/04/25 07:56:05;;;;;;;19.17;11.50;;;17.70;97.00;;;;;;5024084;28;20241;-75
2021/04/25 07:58:31;;;;;;;15.80;10.73;;;17.40;96.70;;;;;;5023546;28;20216;-73
2021/04/25 08:00:57;;;;;;;15.17;10.47;;;17.20;97.00;;;;;;5015943;28;21006;-74
2021/04/25 08:03:22;;;;;;;14.07;10.57;;;17.20;97.00;;;;;;5022588;28;20178;-74
2021/04/25 08:05:48;;;;;;;12.23;10.07;;;17.40;97.00;;;;;;5024516;28;20245;-73
2021/04/25 08:08:13;;;;;;;13.07;10.37;;;17.40;97.40;;;;;;5025705;28;20189;-73
2021/04/25 08:10:39;;;;;;;20.87;12.17;;;17.40;97.50;;;;;;5017575;28;20285;-73
2021/04/25 08:13:04;;;;;;;16.60;9.67;;;17.60;97.40;;;;;;5014220;28;20221;-73
2021/04/25 08:15:30;;;;;;;18.10;10.27;;;17.90;97.30;;;;;;5019008;28;20213;-74
2021/04/25 08:17:56;;;;;;;15.40;10.77;;;17.70;96.50;;;;;;5022402;28;20182;-75
2021/04/25 08:20:22;;;;;;;15.20;11.23;;;17.60;96.50;;;;;;5022613;28;21012;-74
2021/04/25 08:22:48;;;;;;;13.73;9.83;;;17.90;97.90;;;;;;5020436;28;20178;-74
2021/04/25 08:25:13;;;;;;;17.40;11.07;;;18.10;97.80;;;;;;5018189;28;20495;-74
2021/04/25 08:27:39;;;;;;;14.67;11.93;;;18.50;96.50;;;;;;5018507;28;20186;-75
2021/04/25 08:30:06;;;;;;;16.23;10.23;;;18.90;96.70;;;;;;5018358;28;20325;-76
2021/04/25 08:32:31;;;;;;;17.13;11.87;;;18.70;96.70;;;;;;5025047;28;20217;-76
2021/04/25 08:34:57;;;;;;;20.70;11.77;;;18.80;95.70;;;;;;5015444;28;20465;-74
2021/04/25 08:37:22;;;;;;;19.10;11.20;;;18.70;95.50;;;;;;5012539;28;20179;-75
2021/04/25 08:39:48;;;;;;;14.93;11.60;;;18.90;95.10;;;;;;5015789;28;20198;-75
2021/04/25 08:42:13;;;;;;;17.87;11.80;;;19.20;95.50;;;;;;5022203;28;20269;-75
2021/04/25 08:44:42;;;;;;;17.77;14.97;;;19.50;95.70;;;;;;5022302;28;20229;-75
2021/04/25 08:47:08;;;;;;;24.40;11.90;;;19.90;94.80;;;;;;5015241;28;20265;-74
2021/04/25 08:49:35;;;;;;;15.63;11.93;;;19.70;94.20;;;;;;5018211;28;20543;-73
2021/04/25 08:52:01;;;;;;;20.60;11.60;;;19.90;95.60;;;;;;5023305;28;20446;-75
2021/04/25 08:54:27;;;;;;;21.60;11.57;;;20.30;94.00;;;;;;5022414;28;20459;-75
2021/04/25 08:56:55;;;;;;;13.47;10.90;;;20.20;92.70;;;;;;5018465;28;21024;-73
2021/04/25 08:59:21;;;;;;;13.57;10.50;;;20.00;94.00;;;;;;5018863;28;20984;-74
2021/04/25 09:01:46;;;;;;;14.60;11.10;;;19.80;94.30;;;;;;5012930;28;20430;-75
2021/04/25 09:04:12;;;;;;;14.50;9.93;;;19.90;93.10;;;;;;5020014;28;20221;-75
2021/04/25 09:07:14;;;;;;;15.83;10.97;;;20.10;93.50;;;;;;5014888;28;20297;-74
2021/04/25 09:09:44;;;;;;;12.17;9.80;;;20.00;93.20;;;;;;4995131;28;20255;-76
2021/04/25 09:12:10;;;;;;;15.60;11.77;;;20.30;93.80;;;;;;5020281;28;20413;-74
2021/04/25 09:14:40;;;;;;;13.20;9.97;;;20.50;92.80;;;;;;5019402;28;20520;-74
2021/04/25 09:17:07;;;;;;;12.57;10.80;;;20.30;92.80;;;;;;5009159;28;20424;-74
2021/04/25 09:19:54;;;;;;;15.50;9.80;;;20.60;92.20;;;;;;5020471;28;20475;-75
2021/04/25 09:22:21;;;;;;;11.13;8.40;;;20.70;92.80;;;;;;5017447;28;20437;-74
2021/04/25 09:24:48;;;;;;;17.07;10.03;;;21.00;90.70;;;;;;5015888;28;20433;-74
2021/04/25 09:27:27;;;;;;;13.03;8.60;;;21.00;90.60;;;;;;5021467;28;20988;-74
2021/04/25 09:29:55;;;;;;;13.37;8.70;;;21.00;90.80;;;;;;5016717;28;20547;-74
2021/04/25 09:32:23;;;;;;;15.20;8.30;;;21.10;90.20;;;;;;5014276;28;20468;-73
2021/04/25 09:34:50;;;;;;;12.10;9.00;;;21.20;91.30;;;;;;5020739;28;20827;-74
2021/04/25 09:37:18;;;;;;;11.97;9.17;;;21.30;90.30;;;;;;5014812;28;20974;-72
2021/04/25 09:40:02;;;;;;;11.63;7.50;;;21.20;90.80;;;;;;5020830;28;20469;-74
2021/04/25 09:42:29;;;;;;;8.93;7.37;;;21.90;89.10;;;;;;5016527;28;20445;-74
2021/04/25 09:44:54;;;;;;;9.63;8.23;;;21.50;88.50;;;;;;5013069;28;20506;-72
2021/04/25 09:47:30;;;;;;;11.40;8.20;;;21.60;88.10;;;;;;5019191;28;20433;-72
2021/04/25 09:49:55;;;;;;;15.83;10.33;;;21.60;88.90;;;;;;5020453;28;20220;-72
2021/04/25 09:52:27;;;;;;;10.77;8.87;;;21.50;88.30;;;;;;5021566;28;20507;-73
2021/04/25 09:55:18;;;;;;;14.03;7.77;;;22.00;90.10;;;;;;5012573;28;20218;-73
2021/04/25 09:57:45;;;;;;;9.70;7.80;;;21.60;86.30;;;;;;5020895;28;20433;-74
2021/04/25 10:00:11;;;;;;;10.40;8.10;;;21.60;86.10;;;;;;5019295;28;20942;-75
2021/04/25 10:02:57;;;;;;;12.40;7.80;;;20.80;89.20;;;;;;5021503;28;20209;-72
2021/04/25 10:05:24;;;;;;;12.53;8.00;;;21.10;89.00;;;;;;5017535;28;20496;-70
2021/04/25 10:07:50;;;;;;;11.13;8.00;;;21.70;91.20;;;;;;5020115;28;20441;-72
2021/04/25 10:10:16;;;;;;;10.80;8.63;;;21.60;89.80;;;;;;5018829;28;20835;-72
2021/04/25 10:12:42;;;;;;;11.10;8.20;;;21.90;85.80;;;;;;5018981;28;20445;-72
2021/04/25 10:15:10;;;;;;;12.73;9.10;;;21.90;88.60;;;;;;5011086;28;20508;-72
2021/04/25 10:17:40;;;;;;;12.13;8.00;;;22.30;86.00;;;;;;5011583;28;20536;-73
2021/04/25 10:20:07;;;;;;;10.27;7.70;;;22.20;83.10;;;;;;5018855;28;20495;-72
2021/04/25 10:22:33;;;;;;;9.33;6.37;;;22.30;86.20;;;;;;5018520;28;20424;-72
2021/04/25 10:24:59;;;;;;;8.83;6.20;;;22.50;84.50;;;;;;5019007;28;20461;-73
2021/04/25 10:27:27;;;;;;;13.03;8.00;;;22.20;86.00;;;;;;5020950;28;20472;-73
2021/04/25 10:30:01;;;;;;;8.40;7.60;;;22.10;86.40;;;;;;5013935;28;20477;-73
2021/04/25 10:32:27;;;;;;;14.00;8.87;;;21.80;85.30;;;;;;5017835;28;20476;-72
2021/04/25 10:35:18;;;;;;;9.13;6.77;;;21.60;84.50;;;;;;5016662;28;20445;-71
2021/04/25 10:37:45;;;;;;;9.70;7.30;;;22.40;87.30;;;;;;5017181;28;20185;-72
2021/04/25 10:40:32;;;;;;;9.63;7.20;;;22.70;86.80;;;;;;5013395;28;20450;-72
2021/04/25 10:43:06;;;;;;;10.97;7.13;;;22.50;83.60;;;;;;5016651;28;20445;-72
2021/04/25 10:45:35;;;;;;;6.70;6.00;;;22.40;86.10;;;;;;5009590;28;20440;-72
2021/04/25 10:48:22;;;;;;;10.80;6.63;;;22.30;83.10;;;;;;5018735;28;20971;-72
2021/04/25 10:50:50;;;;;;;6.07;5.47;;;22.60;84.90;;;;;;5015250;28;20434;-72
2021/04/25 10:53:20;;;;;;;12.00;6.83;;;22.80;80.40;;;;;;5014326;28;20437;-72
2021/04/25 10:55:48;;;;;;;10.60;8.67;;;22.10;81.80;;;;;;5021030;28;20468;-72
2021/04/25 10:58:14;;;;;;;10.40;5.20;;;22.00;80.50;;;;;;5014266;28;20442;-73
2021/04/25 11:00:40;;;;;;;11.07;5.00;;;21.90;82.50;;;;;;5013639;28;20537;-72
2021/04/25 11:03:10;;;;;;;8.87;6.30;;;21.90;80.70;;;;;;5012071;28;20183;-72
2021/04/25 11:05:36;;;;;;;6.70;5.80;;;21.70;78.70;;;;;;5022295;28;20823;-71
2021/04/25 11:08:25;;;;;;;6.03;5.40;;;21.30;79.90;;;;;;5016129;28;20427;-72
2021/04/25 11:10:52;;;;;;;5.83;5.23;;;21.50;78.00;;;;;;5019157;28;20201;-72
2021/04/25 11:13:33;;;;;;;8.53;5.20;;;21.20;81.60;;;;;;5019206;28;20440;-72
2021/04/25 11:16:01;;;;;;;6.37;5.77;;;21.20;80.50;;;;;;5009531;28;20558;-73
2021/04/25 11:19:09;;;;;;;7.07;5.10;;;20.60;76.20;;;;;;5015681;28;20437;-73
2021/04/25 11:21:46;;;;;;;6.40;4.97;;;20.40;79.20;;;;;;5013688;28;20436;-72
2021/04/25 11:24:12;;;;;;;5.20;4.70;;;20.30;78.50;;;;;;5018452;28;21207;-72
2021/04/25 11:26:42;;;;;;;9.20;4.50;;;20.30;79.80;;;;;;5016538;28;20449;-72
2021/04/25 11:29:16;;;;;;;6.07;4.93;;;20.10;80.80;;;;;;5016801;28;20878;-73
2021/04/25 11:31:49;;;;;;;9.43;4.77;;;20.00;77.40;;;;;;5011672;28;20438;-71
2021/04/25 11:34:30;;;;;;;9.83;4.73;;;19.80;79.80;;;;;;5021000;28;20417;-72
2021/04/25 11:37:01;;;;;;;6.60;4.90;;;20.20;79.60;;;;;;5017635;28;20862;-72
2021/04/25 11:39:56;;;;;;;9.13;5.00;;;20.40;77.50;;;;;;5016446;28;20511;-72
2021/04/25 11:42:31;;;;;;;7.97;4.53;;;19.90;74.30;;;;;;5007996;28;20448;-72
2021/04/25 11:45:03;;;;;;;6.07;4.23;;;20.10;80.00;;;;;;5014221;28;20443;-72
2021/04/25 11:47:32;;;;;;;16.50;10.90;;;20.10;75.30;;;;;;5021455;28;20830;-72
2021/04/25 11:49:59;;;;;;;6.63;5.50;;;20.10;77.80;;;;;;5011627;28;20476;-72
2021/04/25 11:52:29;;;;;;;6.80;6.13;;;20.00;77.00;;;;;;5018915;28;20979;-72
2021/04/25 11:55:00;;;;;;;8.17;5.17;;;20.10;80.60;;;;;;5018333;28;20780;-73
2021/04/25 11:57:28;;;;;;;9.47;6.40;;;20.00;77.70;;;;;;5018681;28;20508;-72
2021/04/25 12:00:01;;;;;;;9.43;4.50;;;19.90;76.10;;;;;;5017189;28;20500;-73
2021/04/25 12:02:34;;;;;;;8.30;4.83;;;19.70;76.40;;;;;;5014867;28;20793;-72
2021/04/25 12:05:01;;;;;;;5.20;4.30;;;19.80;78.50;;;;;;5016151;28;20456;-73
2021/04/25 12:07:35;;;;;;;4.70;4.00;;;19.90;75.10;;;;;;5017125;28;20940;-72
2021/04/25 12:10:06;;;;;;;11.43;4.90;;;19.80;75.00;;;;;;5015337;28;20433;-73
2021/04/25 12:12:32;;;;;;;4.10;3.70;;;19.70;72.80;;;;;;5012342;28;20441;-73
2021/04/25 12:15:04;;;;;;;4.57;4.00;;;19.30;73.70;;;;;;5021224;28;20443;-72
2021/04/25 12:17:30;;;;;;;6.80;5.50;;;19.20;72.80;;;;;;5022749;28;20182;-73
2021/04/25 12:19:58;;;;;;;7.97;4.07;;;19.00;71.80;;;;;;5019116;28;20469;-72
2021/04/25 12:22:24;;;;;;;5.93;3.83;;;18.90;73.00;;;;;;5022008;28;20933;-72
2021/04/25 12:25:03;;;;;;;3.47;3.03;;;18.90;71.40;;;;;;5019809;28;20447;-72
2021/04/25 12:27:28;;;;;;;3.43;2.87;;;18.90;68.50;;;;;;5023804;28;20182;-71
2021/04/25 12:29:54;;;;;;;5.27;3.80;;;18.60;73.00;;;;;;5013590;28;20541;-72
2021/04/25 12:32:21;;;;;;;3.60;3.00;;;18.70;72.00;;;;;;5021539;28;20186;-72
2021/04/25 12:34:59;;;;;;;4.37;3.70;;;18.80;75.60;;;;;;5021461;28;20182;-69
2021/04/25 12:37:35;;;;;;;4.33;2.90;;;18.80;69.10;;;;;;5022931;28;20428;-72
2021/04/25 12:40:02;;;;;;;4.83;3.70;;;18.50;68.30;;;;;;5016031;28;20448;-72
2021/04/25 12:42:27;;;;;;;5.20;3.17;;;18.20;66.60;;;;;;5013152;28;20947;-72
2021/04/25 12:44:53;;;;;;;4.60;2.80;;;18.00;69.40;;;;;;5011288;28;20446;-71
2021/04/25 12:47:28;;;;;;;3.43;3.13;;;17.90;67.50;;;;;;5010102;28;20197;-71